Startpagina
METAR-TAF:

METAR-TAF

Vliegvelden :

Bangalore, India

breedte: 12-57-00N, lengte: 077-40-06E, hoogte: 888 m

Actueel weer

Dit bericht is 27 minuten geleden gemaakt, om 13:00 UTC
Wind 7 kt uit het zuidwesten
Temperatuur 26°C
Vochtigheid 58%
Druk 1010 hPa
Zicht: 8000 m
Weinig wolken op 2000 ft
Gebroken wolken op 8000 ft

METAR: VOBG 191300Z 22007KT 8000 FEW020 BKN080 26/17 Q1010

Tijdstip: 18:57 (13:27 UTC)

Verwachting

Dit bericht is 2 uur en het 27 minuten geleden gemaakt, om 11:00 UTC
Verwachting geldig van 19 om 12 UTC tot 19 om 21 UTC
Wind 10 kt uit het westnoordwesten
Zicht: 6000 m
Verspreide wolken op 1200 ft
Verspreide wolken op 1800 ft
Tijdelijke
van 19 om 12 UTC tot 19 om 18 UTC
Verspreide wolken op 1200 ft
Verspreide wolken op 1800 ft
Weinig wolken op 2500 ft, Cumulonimbus.
Gebroken wolken op 8000 ft

TAF: VOBG 191100Z 1912/1921 29010KT 6000 SCT012 SCT018 TEMPO 1912/1918 SCT012 SCT018 FEW025CB BKN080

Waarnemingen en weersverwachtingen van meer dan 4000 vliegvelden (METAR en TAF).

De beschikbare stations zijn de gele en rode punten op de kaart.

Ga met uw muis naar het station om de naam te zien.

Klik dan om waarnemingen en weersverwachtingen te zien.

kaart wijzigen: klik op de groene knoppen met een zwart kruis om in te zoomen, op de groene knop met een streepje om uit te zoomen of op de groene pijlen voor aangrenzende kaarten.


METAR-TAF: